Time;durP1;ratioP1;P1;durP2;ratioP2;P2;SDS_P1;SDS_P2;PMS_P1;PMS_P2;Temp;Humidity;BMP_temperature;BMP_pressure;BME280_temperature;BME280_humidity;BME280_pressure;Samples;Min_cycle;Max_cycle;Signal;HPM_P1;HPM_P2
2021/12/29 00:00:16;;;;;;;32.53;18.13;;;;;;;;;;5011799;28;20105;-40
2021/12/29 00:02:42;;;;;;;38.13;18.83;;;;;;;;;;5011665;28;20062;-38
2021/12/29 00:05:08;;;;;;;44.22;20.33;;;;;;;;;;5012616;28;20119;-38
2021/12/29 00:07:34;;;;;;;42.17;21.13;;;;;;;;;;5011676;28;20108;-38
2021/12/29 00:10:01;;;;;;;53.13;21.88;;;;;;;;;;5011374;28;20092;-39
2021/12/29 00:12:28;;;;;;;42.75;21.10;;;;;;;;;;5011606;28;20021;-38
2021/12/29 00:14:54;;;;;;;49.67;21.85;;;;;;;;;;5026012;28;20037;-38
2021/12/29 00:17:20;;;;;;;56.28;21.88;;;;;;;;;;5013594;28;20821;-38
2021/12/29 00:19:47;;;;;;;58.92;22.77;;;;;;;;;;5011465;28;20055;-38
2021/12/29 00:22:13;;;;;;;48.47;23.35;;;;;;;;;;5011395;28;20026;-40
2021/12/29 00:24:39;;;;;;;61.83;23.52;;;;;;;;;;5011232;28;20214;-38
2021/12/29 00:27:06;;;;;;;63.47;24.45;;;;;;;;;;5011350;28;20117;-38
2021/12/29 00:29:32;;;;;;;74.65;25.63;;;;;;;;;;5011202;28;20129;-38
2021/12/29 00:31:58;;;;;;;52.42;22.92;;;;;;;;;;5011288;28;20089;-38
2021/12/29 00:34:25;;;;;;;72.38;25.25;;;;;;;;;;5017690;28;20060;-38
2021/12/29 00:36:51;;;;;;;65.05;26.40;;;;;;;;;;5023028;28;20064;-38
2021/12/29 00:39:17;;;;;;;85.35;28.02;;;;;;;;;;5012555;28;20030;-38
2021/12/29 00:41:43;;;;;;;67.53;26.85;;;;;;;;;;5011347;28;20057;-39
2021/12/29 00:44:09;;;;;;;71.05;28.75;;;;;;;;;;5019605;28;20084;-40
2021/12/29 00:46:39;;;;;;;90.35;29.58;;;;;;;;;;5011502;28;20108;-38
2021/12/29 00:49:05;;;;;;;82.03;29.58;;;;;;;;;;5011785;28;20428;-37
2021/12/29 00:51:31;;;;;;;85.82;28.88;;;;;;;;;;5010869;28;20068;-38
2021/12/29 00:53:57;;;;;;;73.80;30.20;;;;;;;;;;5010956;28;20034;-38
2021/12/29 00:56:23;;;;;;;80.80;29.13;;;;;;;;;;5019656;28;20029;-39
2021/12/29 00:58:49;;;;;;;73.38;30.00;;;;;;;;;;5011060;28;20053;-38
2021/12/29 01:01:15;;;;;;;100.95;31.85;;;;;;;;;;5010884;28;20053;-38
2021/12/29 01:03:43;;;;;;;91.97;31.33;;;;;;;;;;5020710;28;20109;-38
2021/12/29 01:06:09;;;;;;;86.50;29.65;;;;;;;;;;5015631;28;20022;-38
2021/12/29 01:08:35;;;;;;;87.70;30.80;;;;;;;;;;5014685;28;20073;-38
2021/12/29 01:11:01;;;;;;;95.13;32.53;;;;;;;;;;5014555;28;20026;-38
2021/12/29 01:13:33;;;;;;;97.72;29.52;;;;;;;;;;5014731;28;20064;-38
2021/12/29 01:18:31;;;;;;;88.63;30.65;;;;;;;;;;5015716;28;20022;-38
2021/12/29 01:20:57;;;;;;;87.72;31.13;;;;;;;;;;5015039;28;20026;-38
2021/12/29 01:23:24;;;;;;;79.95;28.60;;;;;;;;;;5015377;28;20022;-38
2021/12/29 01:25:50;;;;;;;74.22;28.20;;;;;;;;;;5015259;28;20025;-38
2021/12/29 01:28:16;;;;;;;80.05;28.92;;;;;;;;;;5015489;28;20548;-38
2021/12/29 01:30:42;;;;;;;85.45;28.02;;;;;;;;;;5015734;28;20095;-38
2021/12/29 01:33:08;;;;;;;78.32;27.73;;;;;;;;;;5015737;28;20032;-39
2021/12/29 01:35:35;;;;;;;56.67;24.42;;;;;;;;;;5014918;28;20068;-38
2021/12/29 01:38:01;;;;;;;82.10;27.55;;;;;;;;;;5025917;28;20072;-41
2021/12/29 01:40:28;;;;;;;77.43;28.23;;;;;;;;;;5043467;22;20022;-43
2021/12/29 01:42:54;;;;;;;75.18;26.63;;;;;;;;;;5015931;28;20050;-43
2021/12/29 01:45:20;;;;;;;60.85;22.38;;;;;;;;;;5032604;28;20117;-42
2021/12/29 01:47:46;;;;;;;66.00;25.85;;;;;;;;;;5032997;28;20052;-43
2021/12/29 01:50:13;;;;;;;69.70;24.15;;;;;;;;;;5032638;28;20330;-45
2021/12/29 01:52:41;;;;;;;61.08;22.05;;;;;;;;;;5032383;28;20030;-47
2021/12/29 01:55:08;;;;;;;64.95;22.80;;;;;;;;;;5032022;28;20036;-42
2021/12/29 01:57:34;;;;;;;67.20;25.23;;;;;;;;;;5032435;28;20041;-44
2021/12/29 02:00:01;;;;;;;79.45;25.40;;;;;;;;;;5032225;28;20037;-43
2021/12/29 02:02:27;;;;;;;57.88;24.10;;;;;;;;;;5032646;28;20030;-45
2021/12/29 02:04:53;;;;;;;72.10;24.80;;;;;;;;;;5032312;28;20560;-44
2021/12/29 02:07:19;;;;;;;73.47;24.27;;;;;;;;;;5032514;28;20051;-44
2021/12/29 02:09:45;;;;;;;62.72;22.35;;;;;;;;;;5032125;28;20429;-46
2021/12/29 02:12:11;;;;;;;134.13;25.00;;;;;;;;;;5021669;28;20419;-47
2021/12/29 02:14:37;;;;;;;49.05;19.92;;;;;;;;;;5032269;28;20526;-46
2021/12/29 02:17:03;;;;;;;171.68;26.20;;;;;;;;;;5032041;28;20032;-47
2021/12/29 02:19:29;;;;;;;56.80;20.42;;;;;;;;;;5032235;28;20396;-47
2021/12/29 02:22:44;;;;;;;63.78;21.17;;;;;;;;;;5031619;28;20381;-43
2021/12/29 02:24:44;;;;;;;54.13;21.02;;;;;;;;;;5024377;28;20033;-43
2021/12/29 02:27:13;;;;;;;47.42;19.15;;;;;;;;;;5032485;28;20115;-47
2021/12/29 02:29:40;;;;;;;61.78;19.17;;;;;;;;;;5031899;28;20448;-43
2021/12/29 02:32:07;;;;;;;50.42;19.27;;;;;;;;;;5031793;28;20461;-46
2021/12/29 02:34:33;;;;;;;62.40;21.90;;;;;;;;;;5032111;28;20065;-46
2021/12/29 02:37:02;;;;;;;53.55;19.58;;;;;;;;;;5031881;28;20483;-46
2021/12/29 02:39:31;;;;;;;71.30;23.13;;;;;;;;;;5031893;28;20022;-43
2021/12/29 02:41:57;;;;;;;64.03;21.75;;;;;;;;;;5031576;28;20585;-45
2021/12/29 02:44:29;;;;;;;69.40;21.58;;;;;;;;;;5031491;28;20052;-46
2021/12/29 02:46:56;;;;;;;57.72;22.98;;;;;;;;;;5031742;28;20495;-43
2021/12/29 02:49:22;;;;;;;68.93;22.98;;;;;;;;;;5031181;28;20025;-47
2021/12/29 02:51:48;;;;;;;80.63;26.17;;;;;;;;;;5031834;28;20075;-45
2021/12/29 02:54:16;;;;;;;64.40;23.92;;;;;;;;;;5023287;28;20030;-45
2021/12/29 02:56:42;;;;;;;59.95;23.55;;;;;;;;;;5019683;28;20022;-45
2021/12/29 02:59:08;;;;;;;71.32;25.13;;;;;;;;;;5013356;28;20072;-46
2021/12/29 03:01:34;;;;;;;73.30;25.67;;;;;;;;;;5030093;28;20025;-43
2021/12/29 03:04:04;;;;;;;93.72;27.67;;;;;;;;;;5031558;28;20030;-43
2021/12/29 03:06:29;;;;;;;79.72;28.30;;;;;;;;;;5031088;28;20072;-46
2021/12/29 03:08:55;;;;;;;75.60;28.50;;;;;;;;;;5031054;28;20057;-46
2021/12/29 03:11:22;;;;;;;88.43;29.38;;;;;;;;;;5031179;28;20598;-43
2021/12/29 03:13:48;;;;;;;76.40;30.20;;;;;;;;;;5030747;28;20030;-43
2021/12/29 03:16:14;;;;;;;80.28;26.63;;;;;;;;;;5031248;28;20404;-43
2021/12/29 03:18:40;;;;;;;70.05;27.30;;;;;;;;;;5031296;28;20048;-43
2021/12/29 03:21:06;;;;;;;61.17;23.42;;;;;;;;;;5030712;28;20080;-42
2021/12/29 03:23:32;;;;;;;67.40;26.50;;;;;;;;;;5031043;28;20029;-43
2021/12/29 03:25:58;;;;;;;87.78;26.38;;;;;;;;;;5031305;28;20032;-43
2021/12/29 03:28:25;;;;;;;61.05;23.95;;;;;;;;;;5030095;28;20025;-43
2021/12/29 03:30:54;;;;;;;55.33;26.08;;;;;;;;;;5030618;28;20108;-44
2021/12/29 03:33:21;;;;;;;66.45;26.80;;;;;;;;;;5030887;28;20027;-43
2021/12/29 03:35:48;;;;;;;74.18;28.00;;;;;;;;;;5027036;28;20496;-42
2021/12/29 03:38:16;;;;;;;78.97;29.25;;;;;;;;;;5012914;28;20049;-46
2021/12/29 03:40:43;;;;;;;74.18;26.98;;;;;;;;;;5028932;28;20480;-47
2021/12/29 03:43:10;;;;;;;83.57;30.17;;;;;;;;;;5030200;28;20037;-46
2021/12/29 03:45:37;;;;;;;77.97;28.98;;;;;;;;;;5030961;28;20033;-44
2021/12/29 03:48:04;;;;;;;72.97;27.95;;;;;;;;;;5031341;28;20025;-47
2021/12/29 03:50:30;;;;;;;99.65;29.73;;;;;;;;;;5030535;28;20060;-45
2021/12/29 03:52:56;;;;;;;93.60;30.27;;;;;;;;;;5030189;28;20048;-44
2021/12/29 03:55:22;;;;;;;78.63;30.58;;;;;;;;;;5030778;28;20114;-46
2021/12/29 03:57:48;;;;;;;81.97;30.13;;;;;;;;;;5030699;28;20441;-47
2021/12/29 04:00:15;;;;;;;125.57;32.25;;;;;;;;;;5030511;28;20032;-46
2021/12/29 04:02:42;;;;;;;78.63;31.52;;;;;;;;;;5030928;28;20080;-43
2021/12/29 04:05:08;;;;;;;66.00;28.55;;;;;;;;;;5030929;28;20053;-43
2021/12/29 04:07:34;;;;;;;85.25;31.33;;;;;;;;;;5030610;28;20401;-43
2021/12/29 04:10:00;;;;;;;77.47;31.17;;;;;;;;;;5030468;28;20357;-42
2021/12/29 04:12:26;;;;;;;120.53;31.92;;;;;;;;;;5030598;28;20488;-42
2021/12/29 04:14:52;;;;;;;105.78;32.75;;;;;;;;;;5030284;28;20083;-43
2021/12/29 04:17:25;;;;;;;109.80;32.15;;;;;;;;;;5030838;28;20056;-43
2021/12/29 04:22:35;;;;;;;88.87;32.00;;;;;;;;;;5030549;28;20044;-43
2021/12/29 04:25:02;;;;;;;79.70;30.67;;;;;;;;;;5030283;28;20037;-43
2021/12/29 04:27:28;;;;;;;92.30;30.25;;;;;;;;;;5030589;28;20025;-43
2021/12/29 04:29:54;;;;;;;81.05;30.83;;;;;;;;;;5030404;28;20026;-43
2021/12/29 04:32:20;;;;;;;63.63;28.00;;;;;;;;;;5030373;28;20452;-43
2021/12/29 04:34:46;;;;;;;86.35;29.48;;;;;;;;;;5030633;28;20069;-44
2021/12/29 04:37:12;;;;;;;64.93;27.80;;;;;;;;;;5030327;28;20387;-44
2021/12/29 04:39:38;;;;;;;83.78;30.80;;;;;;;;;;5031998;28;20060;-44
2021/12/29 04:42:04;;;;;;;76.22;28.98;;;;;;;;;;5029514;28;20033;-47
2021/12/29 04:44:30;;;;;;;62.55;26.60;;;;;;;;;;5034069;28;20053;-48
2021/12/29 04:46:57;;;;;;;90.65;30.77;;;;;;;;;;5034240;28;20544;-46
2021/12/29 04:49:27;;;;;;;88.20;30.98;;;;;;;;;;5033864;28;20053;-43
2021/12/29 04:52:03;;;;;;;65.70;29.33;;;;;;;;;;5034091;28;20358;-43
2021/12/29 04:54:30;;;;;;;87.72;30.65;;;;;;;;;;5034254;28;20021;-48
2021/12/29 04:56:56;;;;;;;85.53;27.30;;;;;;;;;;5034099;28;20034;-43
2021/12/29 04:59:26;;;;;;;66.10;27.92;;;;;;;;;;5033580;28;20545;-43
2021/12/29 05:01:52;;;;;;;68.70;28.35;;;;;;;;;;5033623;28;20076;-45
2021/12/29 05:04:29;;;;;;;75.85;28.52;;;;;;;;;;5033578;28;20095;-44
2021/12/29 05:09:40;;;;;;;94.18;29.70;;;;;;;;;;5033738;28;20467;-46
2021/12/29 05:12:07;;;;;;;58.80;26.38;;;;;;;;;;5033210;28;20029;-45
2021/12/29 05:14:33;;;;;;;64.47;28.05;;;;;;;;;;5033080;28;20071;-43
2021/12/29 05:16:59;;;;;;;84.55;29.67;;;;;;;;;;5033559;28;20059;-42
2021/12/29 05:19:25;;;;;;;81.55;30.50;;;;;;;;;;5033348;28;20021;-43
2021/12/29 05:21:51;;;;;;;75.18;29.00;;;;;;;;;;5032741;28;20025;-43
2021/12/29 05:24:17;;;;;;;74.82;28.50;;;;;;;;;;5033084;28;20149;-45
2021/12/29 05:26:43;;;;;;;98.30;29.85;;;;;;;;;;5033544;28;20050;-45
2021/12/29 05:29:09;;;;;;;60.63;27.63;;;;;;;;;;5032894;28;20033;-45
2021/12/29 05:31:35;;;;;;;57.10;26.00;;;;;;;;;;5033090;28;20068;-44
2021/12/29 05:34:01;;;;;;;80.60;29.20;;;;;;;;;;5032542;28;20491;-43
2021/12/29 05:36:27;;;;;;;55.65;26.92;;;;;;;;;;5033043;28;20033;-43
2021/12/29 05:38:55;;;;;;;73.30;28.80;;;;;;;;;;5032787;28;20029;-44
2021/12/29 05:41:21;;;;;;;76.45;28.80;;;;;;;;;;5032774;28;20056;-43
2021/12/29 05:43:47;;;;;;;105.45;30.85;;;;;;;;;;5032782;28;20048;-48
2021/12/29 05:46:14;;;;;;;56.05;26.63;;;;;;;;;;5032450;28;20061;-46
2021/12/29 05:48:40;;;;;;;59.83;27.23;;;;;;;;;;5032426;28;20041;-44
2021/12/29 05:51:06;;;;;;;67.55;28.38;;;;;;;;;;5031334;28;20021;-46
2021/12/29 05:53:32;;;;;;;67.35;28.20;;;;;;;;;;5014115;28;20026;-46
2021/12/29 05:55:58;;;;;;;70.22;28.98;;;;;;;;;;5021627;28;20029;-46
2021/12/29 05:58:24;;;;;;;60.67;27.35;;;;;;;;;;5032390;28;20025;-47
2021/12/29 06:00:50;;;;;;;64.18;29.30;;;;;;;;;;5031401;28;20026;-43
2021/12/29 06:03:19;;;;;;;55.97;27.17;;;;;;;;;;5032217;28;20075;-42
2021/12/29 06:05:45;;;;;;;79.13;28.15;;;;;;;;;;5032714;28;20112;-43
2021/12/29 06:08:11;;;;;;;67.75;27.45;;;;;;;;;;5032622;28;20033;-43
2021/12/29 06:10:37;;;;;;;61.65;27.52;;;;;;;;;;5032088;28;20516;-45
2021/12/29 06:13:03;;;;;;;67.93;28.00;;;;;;;;;;5032185;28;20051;-45
2021/12/29 06:15:30;;;;;;;85.90;28.55;;;;;;;;;;5032240;28;20515;-43
2021/12/29 06:17:56;;;;;;;58.15;26.80;;;;;;;;;;5032269;28;20108;-42
2021/12/29 06:20:22;;;;;;;53.13;25.38;;;;;;;;;;5031714;28;20048;-44
2021/12/29 06:22:48;;;;;;;58.72;24.60;;;;;;;;;;5031425;28;20022;-42
2021/12/29 06:25:16;;;;;;;61.45;24.50;;;;;;;;;;5029989;28;20025;-43
2021/12/29 06:27:42;;;;;;;91.18;26.55;;;;;;;;;;5032132;28;20116;-43
2021/12/29 06:30:10;;;;;;;54.17;26.90;;;;;;;;;;5032005;28;20029;-45
2021/12/29 06:32:37;;;;;;;45.08;25.27;;;;;;;;;;5031756;28;20423;-43
2021/12/29 06:35:03;;;;;;;54.67;25.83;;;;;;;;;;5031723;28;20055;-43
2021/12/29 06:37:29;;;;;;;53.38;23.40;;;;;;;;;;5032061;28;20057;-43
2021/12/29 06:39:55;;;;;;;117.55;23.90;;;;;;;;;;5031670;28;20471;-43
2021/12/29 06:42:22;;;;;;;87.70;26.58;;;;;;;;;;5014078;28;20065;-43
2021/12/29 06:44:48;;;;;;;160.57;30.52;;;;;;;;;;5031236;28;20041;-43
2021/12/29 06:47:15;;;;;;;52.45;22.83;;;;;;;;;;5023778;28;20037;-42
2021/12/29 06:49:41;;;;;;;50.17;23.92;;;;;;;;;;5031583;28;20256;-42
2021/12/29 06:52:08;;;;;;;67.93;26.88;;;;;;;;;;5031547;28;20083;-44
2021/12/29 06:54:36;;;;;;;94.32;27.55;;;;;;;;;;5031242;28;20022;-43
2021/12/29 06:57:02;;;;;;;104.10;27.10;;;;;;;;;;5031398;28;20025;-43
2021/12/29 06:59:28;;;;;;;87.22;26.35;;;;;;;;;;5030992;28;20025;-42
2021/12/29 07:01:55;;;;;;;64.35;25.08;;;;;;;;;;5031250;28;20045;-43
2021/12/29 07:04:23;;;;;;;61.05;25.27;;;;;;;;;;5031418;28;20043;-45
2021/12/29 07:06:49;;;;;;;50.13;23.77;;;;;;;;;;5030872;28;20083;-45
2021/12/29 07:09:15;;;;;;;40.63;22.17;;;;;;;;;;5011317;28;20026;-43
2021/12/29 07:11:41;;;;;;;41.20;22.25;;;;;;;;;;5011332;28;20526;-44
2021/12/29 07:14:09;;;;;;;38.42;21.15;;;;;;;;;;5021369;28;20037;-42
2021/12/29 07:16:35;;;;;;;53.85;22.52;;;;;;;;;;5029758;28;20044;-42
2021/12/29 07:19:01;;;;;;;64.40;23.13;;;;;;;;;;5026953;28;20030;-41
2021/12/29 07:21:27;;;;;;;54.75;24.05;;;;;;;;;;5031165;28;20096;-41
2021/12/29 07:23:54;;;;;;;54.33;22.23;;;;;;;;;;5020707;28;20461;-42
2021/12/29 07:26:21;;;;;;;53.40;23.45;;;;;;;;;;5025494;28;20686;-43
2021/12/29 07:28:47;;;;;;;41.88;22.70;;;;;;;;;;5030795;28;20104;-43
2021/12/29 07:31:13;;;;;;;47.08;23.30;;;;;;;;;;5030687;28;20052;-44
2021/12/29 07:33:39;;;;;;;48.92;22.75;;;;;;;;;;5030463;28;20021;-43
2021/12/29 07:36:05;;;;;;;50.50;22.35;;;;;;;;;;5030888;28;20035;-43
2021/12/29 07:38:31;;;;;;;46.45;22.27;;;;;;;;;;5030922;28;20021;-43
2021/12/29 07:40:57;;;;;;;54.20;22.40;;;;;;;;;;5029794;28;20032;-43
2021/12/29 07:43:23;;;;;;;64.50;21.65;;;;;;;;;;5001293;22;1430437;-35
2021/12/29 07:45:50;;;;;;;68.50;22.88;;;;;;;;;;5028738;28;20022;-35
2021/12/29 07:48:18;;;;;;;63.17;24.25;;;;;;;;;;5029065;28;20018;-35
2021/12/29 07:50:44;;;;;;;87.43;23.90;;;;;;;;;;5028349;28;20395;-35
2021/12/29 07:53:10;;;;;;;52.13;21.92;;;;;;;;;;5016560;28;20121;-34
2021/12/29 07:55:36;;;;;;;76.63;21.90;;;;;;;;;;5016790;28;20057;-35
2021/12/29 07:58:03;;;;;;;56.70;22.13;;;;;;;;;;5013265;28;20064;-35
2021/12/29 08:00:29;;;;;;;64.30;22.13;;;;;;;;;;5026319;28;20053;-37
2021/12/29 08:02:55;;;;;;;71.57;20.02;;;;;;;;;;5032772;28;20063;-35
2021/12/29 08:05:22;;;;;;;57.72;20.60;;;;;;;;;;5031687;28;20029;-36
2021/12/29 08:07:49;;;;;;;81.63;21.77;;;;;;;;;;5030549;28;20052;-35
2021/12/29 08:10:15;;;;;;;62.88;19.90;;;;;;;;;;5030616;28;20034;-35
2021/12/29 08:12:41;;;;;;;86.10;19.33;;;;;;;;;;5029032;28;20040;-35
2021/12/29 08:15:07;;;;;;;58.80;18.35;;;;;;;;;;5033983;28;20115;-35
2021/12/29 08:17:34;;;;;;;66.10;20.08;;;;;;;;;;5034425;28;20534;-36
2021/12/29 08:20:00;;;;;;;65.18;19.02;;;;;;;;;;5030697;28;20117;-35
2021/12/29 08:22:27;;;;;;;67.07;19.63;;;;;;;;;;5024681;28;20021;-36
2021/12/29 08:24:52;;;;;;;76.25;19.15;;;;;;;;;;5025637;28;20040;-35
2021/12/29 08:27:19;;;;;;;58.20;20.25;;;;;;;;;;5030662;28;20025;-35
2021/12/29 08:29:58;;;;;;;80.00;20.45;;;;;;;;;;5032873;28;20036;-35
2021/12/29 08:32:24;;;;;;;65.50;21.73;;;;;;;;;;5012817;28;20220;-36
2021/12/29 08:34:50;;;;;;;95.57;21.58;;;;;;;;;;5033247;28;20025;-36
2021/12/29 08:37:16;;;;;;;73.40;20.42;;;;;;;;;;5033089;28;20018;-36
2021/12/29 08:39:42;;;;;;;65.80;20.05;;;;;;;;;;5029890;28;20485;-36
2021/12/29 08:42:08;;;;;;;59.15;19.80;;;;;;;;;;5018572;28;20049;-35
2021/12/29 08:44:34;;;;;;;68.28;21.60;;;;;;;;;;5031046;28;20057;-36
2021/12/29 08:47:00;;;;;;;68.43;20.83;;;;;;;;;;5032684;28;20036;-37
2021/12/29 08:49:26;;;;;;;60.00;19.92;;;;;;;;;;5023636;28;20018;-36
2021/12/29 08:51:52;;;;;;;54.20;19.92;;;;;;;;;;5023859;28;20064;-36
2021/12/29 08:54:18;;;;;;;47.15;18.27;;;;;;;;;;5023339;28;20025;-37
2021/12/29 08:56:44;;;;;;;50.35;17.58;;;;;;;;;;5027447;28;20104;-35
2021/12/29 08:59:12;;;;;;;48.92;18.08;;;;;;;;;;5013588;28;20485;-38
2021/12/29 09:01:38;;;;;;;44.28;17.55;;;;;;;;;;5013360;28;20068;-37
2021/12/29 09:04:04;;;;;;;44.63;16.98;;;;;;;;;;5013003;28;20068;-36
2021/12/29 09:06:30;;;;;;;47.45;17.33;;;;;;;;;;5013490;28;20025;-37
2021/12/29 09:08:56;;;;;;;56.78;18.10;;;;;;;;;;5021619;28;20026;-36
2021/12/29 09:11:22;;;;;;;41.65;18.42;;;;;;;;;;5026685;28;20028;-36
2021/12/29 09:13:48;;;;;;;43.03;17.05;;;;;;;;;;5016307;28;20025;-37
2021/12/29 09:16:14;;;;;;;41.33;17.38;;;;;;;;;;5017856;28;20037;-36
2021/12/29 09:18:40;;;;;;;37.53;15.35;;;;;;;;;;5013077;28;20504;-37
2021/12/29 09:21:12;;;;;;;46.60;15.95;;;;;;;;;;5021340;28;20074;-36
2021/12/29 09:23:38;;;;;;;39.88;15.05;;;;;;;;;;5028438;28;20029;-38
2021/12/29 09:26:04;;;;;;;37.42;14.98;;;;;;;;;;5027249;28;20511;-38
2021/12/29 09:28:31;;;;;;;39.95;14.52;;;;;;;;;;5027635;28;20068;-38
2021/12/29 09:30:57;;;;;;;38.33;15.40;;;;;;;;;;5024570;28;20036;-37
2021/12/29 09:33:23;;;;;;;38.63;13.88;;;;;;;;;;5019612;28;20049;-36
2021/12/29 09:35:52;;;;;;;34.28;13.23;;;;;;;;;;5024998;28;20105;-37
2021/12/29 09:38:19;;;;;;;36.38;13.60;;;;;;;;;;5028545;28;20025;-38
2021/12/29 09:40:45;;;;;;;39.53;13.32;;;;;;;;;;5020330;28;20026;-36
2021/12/29 09:43:11;;;;;;;28.42;12.48;;;;;;;;;;5027320;28;20436;-36
2021/12/29 09:45:38;;;;;;;32.53;12.77;;;;;;;;;;5024693;28;20558;-36
2021/12/29 09:48:05;;;;;;;33.83;13.35;;;;;;;;;;5022996;28;20486;-37
2021/12/29 09:50:31;;;;;;;32.20;12.73;;;;;;;;;;5023570;28;20053;-36
2021/12/29 09:52:57;;;;;;;35.35;12.57;;;;;;;;;;5027801;28;20033;-37
2021/12/29 09:55:23;;;;;;;28.30;11.07;;;;;;;;;;5026708;28;20147;-35
2021/12/29 09:57:51;;;;;;;29.33;11.05;;;;;;;;;;5014504;28;20092;-36
2021/12/29 10:00:26;;;;;;;33.20;12.82;;;;;;;;;;5013156;28;20022;-37
2021/12/29 10:02:53;;;;;;;28.77;11.27;;;;;;;;;;5015609;28;20030;-36
2021/12/29 10:05:19;;;;;;;29.45;11.05;;;;;;;;;;5028007;28;20035;-38
2021/12/29 10:07:56;;;;;;;32.38;11.88;;;;;;;;;;5030960;28;20472;-38
2021/12/29 10:10:23;;;;;;;28.60;10.80;;;;;;;;;;5027103;28;20507;-39
2021/12/29 10:12:49;;;;;;;29.20;11.82;;;;;;;;;;5027453;28;20033;-36
2021/12/29 10:15:15;;;;;;;25.85;10.98;;;;;;;;;;5030976;28;20029;-36
2021/12/29 10:17:41;;;;;;;25.02;10.48;;;;;;;;;;5011738;28;20033;-36
2021/12/29 10:20:12;;;;;;;25.67;11.73;;;;;;;;;;5012293;28;20065;-39
2021/12/29 10:22:38;;;;;;;38.95;12.60;;;;;;;;;;5011785;28;20426;-44
2021/12/29 10:25:05;;;;;;;49.55;13.85;;;;;;;;;;5013063;28;20037;-42
2021/12/29 10:27:31;;;;;;;32.38;12.45;;;;;;;;;;5026006;28;20117;-39
2021/12/29 10:29:58;;;;;;;50.83;13.52;;;;;;;;;;5020594;28;20503;-37
2021/12/29 10:32:24;;;;;;;40.55;13.43;;;;;;;;;;5018185;28;20049;-38
2021/12/29 10:34:51;;;;;;;48.22;14.45;;;;;;;;;;5011646;28;20026;-38
2021/12/29 10:37:17;;;;;;;45.63;14.70;;;;;;;;;;5011359;28;20465;-39
2021/12/29 10:39:48;;;;;;;36.35;14.38;;;;;;;;;;5011626;28;20059;-39
2021/12/29 10:42:15;;;;;;;47.92;12.93;;;;;;;;;;5013800;28;20293;-37
2021/12/29 10:44:47;;;;;;;57.35;13.05;;;;;;;;;;5030415;28;20029;-39
2021/12/29 10:47:23;;;;;;;45.72;14.15;;;;;;;;;;5028704;28;20026;-40
2021/12/29 10:50:01;;;;;;;49.58;14.90;;;;;;;;;;5030436;28;20110;-36
2021/12/29 10:52:38;;;;;;;36.70;14.02;;;;;;;;;;5024039;28;20067;-38
2021/12/29 10:55:06;;;;;;;81.32;12.73;;;;;;;;;;5014000;28;20033;-38
2021/12/29 10:57:32;;;;;;;43.83;12.85;;;;;;;;;;5017309;28;20478;-36
2021/12/29 10:59:59;;;;;;;39.25;13.48;;;;;;;;;;5021872;28;20105;-36
2021/12/29 11:02:27;;;;;;;51.08;13.85;;;;;;;;;;5026665;28;20546;-39
2021/12/29 11:05:00;;;;;;;38.17;14.63;;;;;;;;;;5011934;28;20108;-35
2021/12/29 11:07:28;;;;;;;47.83;14.35;;;;;;;;;;5026513;28;20029;-38
2021/12/29 11:09:54;;;;;;;60.60;15.82;;;;;;;;;;5025462;28;20055;-37
2021/12/29 11:12:20;;;;;;;38.35;13.60;;;;;;;;;;4995563;28;20448;-36
2021/12/29 11:14:52;;;;;;;62.42;14.90;;;;;;;;;;5018921;28;20473;-36
2021/12/29 11:17:23;;;;;;;38.40;12.70;;;;;;;;;;5015371;28;20022;-36
2021/12/29 11:19:54;;;;;;;37.40;14.07;;;;;;;;;;5016118;28;20396;-36
2021/12/29 11:22:22;;;;;;;93.57;14.75;;;;;;;;;;5021248;28;20392;-36
2021/12/29 11:24:53;;;;;;;68.32;13.10;;;;;;;;;;5023586;28;20030;-35
2021/12/29 11:27:19;;;;;;;51.67;13.02;;;;;;;;;;5025792;28;20110;-38
2021/12/29 11:29:49;;;;;;;74.43;14.93;;;;;;;;;;5021277;28;20053;-36
2021/12/29 11:32:19;;;;;;;31.83;12.88;;;;;;;;;;5028384;28;20053;-36
2021/12/29 11:34:45;;;;;;;42.17;13.23;;;;;;;;;;5026108;28;20041;-37
2021/12/29 11:37:13;;;;;;;73.40;14.45;;;;;;;;;;5019654;28;20049;-35
2021/12/29 11:39:47;;;;;;;82.57;14.70;;;;;;;;;;5016319;28;20511;-37
2021/12/29 11:42:17;;;;;;;81.13;15.10;;;;;;;;;;5028763;28;20097;-38
2021/12/29 11:44:43;;;;;;;48.17;14.35;;;;;;;;;;5013286;28;20071;-37
2021/12/29 11:47:10;;;;;;;35.97;13.48;;;;;;;;;;5028102;28;20108;-38
2021/12/29 11:49:39;;;;;;;31.30;13.05;;;;;;;;;;5017870;28;20030;-36
2021/12/29 11:52:24;;;;;;;61.25;14.50;;;;;;;;;;5029917;28;20536;-36
2021/12/29 11:54:50;;;;;;;40.42;14.40;;;;;;;;;;5016768;28;20064;-36
2021/12/29 11:57:18;;;;;;;37.47;14.80;;;;;;;;;;5018700;28;20030;-37
2021/12/29 11:59:44;;;;;;;31.15;14.45;;;;;;;;;;5026259;28;20448;-36
2021/12/29 12:02:10;;;;;;;52.00;15.23;;;;;;;;;;5013961;28;20067;-35
2021/12/29 12:04:36;;;;;;;48.75;14.77;;;;;;;;;;5023104;28;20100;-36
2021/12/29 12:07:07;;;;;;;48.35;16.30;;;;;;;;;;5020747;28;20079;-36
2021/12/29 12:09:49;;;;;;;38.03;15.65;;;;;;;;;;5024177;28;20060;-35
2021/12/29 12:12:16;;;;;;;36.05;15.35;;;;;;;;;;5026176;28;20025;-35
2021/12/29 12:14:47;;;;;;;37.20;14.90;;;;;;;;;;5007748;28;20080;-36
2021/12/29 12:17:15;;;;;;;75.35;16.98;;;;;;;;;;5023700;28;20604;-35
2021/12/29 12:19:42;;;;;;;66.60;16.90;;;;;;;;;;5027014;28;20025;-36
2021/12/29 12:22:28;;;;;;;33.33;17.13;;;;;;;;;;5028021;28;20488;-35
2021/12/29 12:24:57;;;;;;;32.60;16.42;;;;;;;;;;5029454;28;20052;-38
2021/12/29 12:27:26;;;;;;;38.45;16.75;;;;;;;;;;5025902;28;20026;-37
2021/12/29 12:30:00;;;;;;;40.67;17.98;;;;;;;;;;5015016;28;20556;-35
2021/12/29 12:32:29;;;;;;;44.33;16.40;;;;;;;;;;5029383;28;20060;-39
2021/12/29 12:34:56;;;;;;;54.78;18.77;;;;;;;;;;5024915;28;21245;-37
2021/12/29 12:37:43;;;;;;;49.65;18.08;;;;;;;;;;5032420;28;20060;-35
2021/12/29 12:40:21;;;;;;;38.95;16.95;;;;;;;;;;5033850;28;21078;-38
2021/12/29 12:42:57;;;;;;;39.35;16.45;;;;;;;;;;5028287;28;20421;-37
2021/12/29 12:45:24;;;;;;;41.95;16.55;;;;;;;;;;5023027;28;20523;-35
2021/12/29 12:47:50;;;;;;;41.05;17.17;;;;;;;;;;5021940;28;20096;-37
2021/12/29 12:50:23;;;;;;;36.33;15.10;;;;;;;;;;5011377;28;20030;-36
2021/12/29 12:52:52;;;;;;;31.55;16.10;;;;;;;;;;5022576;28;20084;-39
2021/12/29 12:55:18;;;;;;;61.17;16.13;;;;;;;;;;5029991;28;20089;-37
2021/12/29 12:57:47;;;;;;;73.30;16.25;;;;;;;;;;5031043;28;20065;-37
2021/12/29 13:00:28;;;;;;;71.05;17.75;;;;;;;;;;5034006;28;20017;-37
2021/12/29 13:02:56;;;;;;;64.03;16.88;;;;;;;;;;5019742;28;20030;-37
2021/12/29 13:05:30;;;;;;;35.53;17.15;;;;;;;;;;5023780;28;20496;-37
2021/12/29 13:08:05;;;;;;;60.47;16.85;;;;;;;;;;5018173;28;20081;-37
2021/12/29 13:10:33;;;;;;;51.13;16.10;;;;;;;;;;5022059;28;20026;-38
2021/12/29 13:13:01;;;;;;;35.40;15.65;;;;;;;;;;5026233;28;20380;-36
2021/12/29 13:15:30;;;;;;;97.60;17.90;;;;;;;;;;5020538;28;20481;-36
2021/12/29 13:17:56;;;;;;;96.18;17.92;;;;;;;;;;5013610;28;20030;-37
2021/12/29 13:20:22;;;;;;;46.38;16.95;;;;;;;;;;5019923;28;20116;-36
2021/12/29 13:22:49;;;;;;;32.47;15.00;;;;;;;;;;5025403;28;20087;-35
2021/12/29 13:25:15;;;;;;;31.05;15.32;;;;;;;;;;5016957;28;20042;-36
2021/12/29 13:27:42;;;;;;;55.20;16.58;;;;;;;;;;5017035;28;20040;-35
2021/12/29 13:30:13;;;;;;;33.03;14.30;;;;;;;;;;5027028;28;20026;-36
2021/12/29 13:32:52;;;;;;;48.78;15.80;;;;;;;;;;5027614;28;20045;-35
2021/12/29 13:35:22;;;;;;;56.20;15.45;;;;;;;;;;5020973;28;20033;-35
2021/12/29 13:37:49;;;;;;;64.53;16.05;;;;;;;;;;5016788;28;20018;-36
2021/12/29 13:40:17;;;;;;;33.65;14.93;;;;;;;;;;5031850;28;20040;-40
2021/12/29 13:42:44;;;;;;;33.80;13.57;;;;;;;;;;5052030;23;20044;-41
2021/12/29 13:45:23;;;;;;;86.72;16.23;;;;;;;;;;5023451;28;20048;-41
2021/12/29 13:47:49;;;;;;;159.85;18.80;;;;;;;;;;5031619;28;20052;-41
2021/12/29 13:50:16;;;;;;;128.45;15.48;;;;;;;;;;5031018;28;20025;-41
2021/12/29 13:52:42;;;;;;;92.88;16.52;;;;;;;;;;5024207;28;20365;-39
2021/12/29 13:55:08;;;;;;;59.65;15.82;;;;;;;;;;5011156;28;20033;-40
2021/12/29 13:57:34;;;;;;;172.52;18.27;;;;;;;;;;5011756;28;20400;-40
2021/12/29 14:00:00;;;;;;;62.00;17.10;;;;;;;;;;5012129;28;20113;-41
2021/12/29 14:02:26;;;;;;;176.43;18.27;;;;;;;;;;5019404;28;20030;-41
2021/12/29 14:04:52;;;;;;;242.15;22.15;;;;;;;;;;5013019;28;20034;-41
2021/12/29 14:07:20;;;;;;;143.75;19.27;;;;;;;;;;5010360;28;20026;-41
2021/12/29 14:09:47;;;;;;;135.38;18.40;;;;;;;;;;5011084;28;20116;-42
2021/12/29 14:12:13;;;;;;;129.25;18.17;;;;;;;;;;5009869;28;20072;-41
2021/12/29 14:14:40;;;;;;;66.07;15.57;;;;;;;;;;5021363;28;20037;-40
2021/12/29 14:17:13;;;;;;;43.45;18.08;;;;;;;;;;5009658;28;20396;-41
2021/12/29 14:19:44;;;;;;;102.68;17.77;;;;;;;;;;5016506;28;20048;-42
2021/12/29 14:22:20;;;;;;;121.93;20.02;;;;;;;;;;5012437;28;20030;-41
2021/12/29 14:24:45;;;;;;;;;;;;;;;;;;5012472;28;20033;-41